createdAt,value
2023-02-12T00:02:23.761Z,42.80
2023-02-12T00:07:21.013Z,34.00
2023-02-12T00:12:18.264Z,30.38
2023-02-12T00:17:15.839Z,36.17
2023-02-12T00:22:13.435Z,29.73
2023-02-12T00:27:10.763Z,33.95
2023-02-12T00:32:08.002Z,29.65
2023-02-12T00:37:05.403Z,30.60
2023-02-12T00:42:02.613Z,30.65
2023-02-12T00:47:02.532Z,36.55
2023-02-12T00:56:58.043Z,29.05
2023-02-12T01:01:56.489Z,28.27
2023-02-12T01:06:54.209Z,26.27
2023-02-12T01:11:51.627Z,37.90
2023-02-12T01:16:49.330Z,37.13
2023-02-12T01:21:46.611Z,30.02
2023-02-12T01:26:43.964Z,33.30
2023-02-12T01:31:42.653Z,33.67
2023-02-12T01:36:40.243Z,35.83
2023-02-12T01:41:41.049Z,29.52
2023-02-12T01:46:39.353Z,35.67
2023-02-12T01:51:37.145Z,34.05
2023-02-12T01:56:35.504Z,29.42
2023-02-12T02:01:34.097Z,29.33
2023-02-12T02:06:54.140Z,27.83
2023-02-12T02:12:10.265Z,23.37
2023-02-12T02:17:28.798Z,29.52
2023-02-12T02:22:41.282Z,35.33
2023-02-12T02:28:08.049Z,25.13
2023-02-12T02:33:38.973Z,31.25
2023-02-12T02:38:46.172Z,26.02
2023-02-12T02:43:48.419Z,29.77
2023-02-12T02:48:57.101Z,30.17
2023-02-12T02:54:23.415Z,25.40
2023-02-12T02:59:29.308Z,25.52
2023-02-12T03:04:44.288Z,27.23
2023-02-12T03:09:47.223Z,23.73
2023-02-12T03:14:54.477Z,36.72
2023-02-12T03:19:58.359Z,28.08
2023-02-12T03:25:09.778Z,27.27
2023-02-12T03:30:14.726Z,24.65
2023-02-12T03:35:18.549Z,30.63
2023-02-12T03:40:23.871Z,31.40
2023-02-12T03:45:42.510Z,26.95
2023-02-12T03:50:59.659Z,27.42
2023-02-12T03:56:12.033Z,26.58
2023-02-12T04:01:09.779Z,26.23
2023-02-12T04:06:20.862Z,23.73
2023-02-12T04:11:30.164Z,22.17
2023-02-12T04:16:40.728Z,25.77
2023-02-12T04:22:14.647Z,33.13
2023-02-12T04:27:20.719Z,36.60
2023-02-12T04:32:41.411Z,25.92
2023-02-12T04:37:44.662Z,26.55
2023-02-12T04:42:44.399Z,28.00
2023-02-12T04:47:41.963Z,32.60
2023-02-12T04:52:39.376Z,26.30
2023-02-12T04:57:38.494Z,26.90
2023-02-12T05:02:37.080Z,27.73
2023-02-12T05:07:36.918Z,22.98
2023-02-12T05:12:34.213Z,31.95
2023-02-12T05:17:33.003Z,25.50
2023-02-12T05:22:31.541Z,25.08
2023-02-12T05:27:28.984Z,32.65
2023-02-12T05:32:26.299Z,21.88
2023-02-12T05:37:23.484Z,27.95
2023-02-12T05:42:20.869Z,29.50
2023-02-12T05:47:18.179Z,22.90
2023-02-12T05:52:15.507Z,21.80
2023-02-12T05:57:12.727Z,26.05
2023-02-12T06:02:10.113Z,20.75
2023-02-12T06:07:10.237Z,27.63
2023-02-12T06:12:07.572Z,24.77
2023-02-12T06:17:04.881Z,24.85
2023-02-12T06:22:02.260Z,22.48
2023-02-12T06:26:59.847Z,25.58
2023-02-12T06:31:57.142Z,22.02
2023-02-12T06:36:54.905Z,24.67
2023-02-12T06:41:52.305Z,28.17
2023-02-12T06:46:49.684Z,28.23
2023-02-12T06:51:47.089Z,25.88
2023-02-12T06:56:45.014Z,23.40
2023-02-12T07:01:42.367Z,34.50
2023-02-12T07:06:39.828Z,38.63
2023-02-12T07:11:38.649Z,37.55
2023-02-12T07:16:36.251Z,28.75
2023-02-12T07:21:33.913Z,50.28
2023-02-12T07:26:31.266Z,25.70
2023-02-12T07:31:28.753Z,25.58
2023-02-12T07:36:29.688Z,24.35
2023-02-12T07:41:30.262Z,39.63
2023-02-12T07:46:31.255Z,30.42
2023-02-12T07:51:28.923Z,38.25
2023-02-12T07:56:32.729Z,49.30
2023-02-12T08:01:35.729Z,71.00
2023-02-12T08:06:35.284Z,42.85
2023-02-12T08:11:33.708Z,39.72
2023-02-12T08:16:31.878Z,36.95
2023-02-12T08:21:29.507Z,36.17
2023-02-12T08:26:32.806Z,21.58
2023-02-12T08:31:33.451Z,33.25
2023-02-12T08:36:39.380Z,25.48
2023-02-12T08:41:37.575Z,29.38
2023-02-12T08:46:37.678Z,23.73
2023-02-12T08:51:36.580Z,27.25
2023-02-12T08:56:35.920Z,26.35
2023-02-12T09:01:38.600Z,38.70
2023-02-12T09:06:36.591Z,26.48
2023-02-12T09:11:35.440Z,24.92
2023-02-12T09:16:35.861Z,26.00
2023-02-12T09:21:33.991Z,26.85
2023-02-12T09:26:31.544Z,23.27
2023-02-12T09:31:31.125Z,23.10
2023-02-12T09:36:29.060Z,22.93
2023-02-12T09:41:49.924Z,16.05
2023-02-12T09:47:00.879Z,23.92
2023-02-12T09:51:59.096Z,35.78
2023-02-12T09:57:00.499Z,16.42
2023-02-12T10:01:59.095Z,25.42
2023-02-12T10:07:19.439Z,23.60
2023-02-12T10:12:39.901Z,25.77
2023-02-12T10:17:52.236Z,33.75
2023-02-12T10:23:04.214Z,23.35
2023-02-12T10:28:08.900Z,15.98
2023-02-12T10:33:16.415Z,22.60
2023-02-12T10:38:21.864Z,19.80
2023-02-12T10:43:19.238Z,23.67
2023-02-12T10:48:20.788Z,18.92
2023-02-12T10:53:29.938Z,18.30
2023-02-12T10:58:27.257Z,22.80
2023-02-12T11:03:29.886Z,19.10
2023-02-12T11:08:34.322Z,26.88
2023-02-12T11:13:32.042Z,27.85
2023-02-12T11:18:33.189Z,21.73
2023-02-12T11:23:38.000Z,22.77
2023-02-12T11:28:37.165Z,19.60
2023-02-12T11:33:36.330Z,33.92
2023-02-12T11:38:55.251Z,30.73
2023-02-12T11:43:53.211Z,14.57
2023-02-12T11:48:53.041Z,18.40
2023-02-12T11:53:53.331Z,17.73
2023-02-12T11:58:54.070Z,17.73
2023-02-12T12:04:20.612Z,21.52
2023-02-12T12:09:25.280Z,26.83
2023-02-12T12:15:03.074Z,22.05
2023-02-12T12:20:04.499Z,20.45
2023-02-12T12:25:24.684Z,19.67
2023-02-12T12:30:44.261Z,19.53
2023-02-12T12:35:53.637Z,28.98
2023-02-12T12:41:08.758Z,19.77
2023-02-12T12:46:21.787Z,14.30
2023-02-12T12:51:23.516Z,16.17
2023-02-12T12:56:26.354Z,20.83
2023-02-12T13:01:35.504Z,19.00
2023-02-12T13:06:35.461Z,16.70
2023-02-12T13:11:54.280Z,17.58
2023-02-12T13:17:00.903Z,12.05
2023-02-12T13:22:19.881Z,18.80
2023-02-12T13:27:23.029Z,23.52
2023-02-12T13:32:46.912Z,21.00
2023-02-12T13:37:51.629Z,24.20
2023-02-12T13:42:48.944Z,17.00
2023-02-12T13:48:12.432Z,28.30
2023-02-12T13:53:21.463Z,24.55
2023-02-12T13:58:35.019Z,20.50
2023-02-12T14:03:32.726Z,21.98
2023-02-12T14:09:00.768Z,18.52
2023-02-12T14:14:05.039Z,23.13
2023-02-12T14:19:36.964Z,37.28
2023-02-12T14:24:36.894Z,25.05
2023-02-12T14:29:34.238Z,18.98
2023-02-12T14:34:31.603Z,16.60
2023-02-12T14:39:30.198Z,15.98
2023-02-12T14:44:29.172Z,25.98
2023-02-12T14:49:27.541Z,17.45
2023-02-12T14:54:36.024Z,29.50
2023-02-12T14:59:40.244Z,19.48
2023-02-12T15:04:38.894Z,23.75
2023-02-12T15:09:52.486Z,19.58
2023-02-12T15:15:08.891Z,17.25
2023-02-12T15:20:16.780Z,16.52
2023-02-12T15:25:16.971Z,32.47
2023-02-12T15:30:25.962Z,18.42
2023-02-12T15:35:26.987Z,18.88
2023-02-12T15:40:24.448Z,17.08
2023-02-12T15:45:27.560Z,14.57
2023-02-12T15:50:25.574Z,22.48
2023-02-12T15:55:33.380Z,22.33
2023-02-12T16:00:30.650Z,18.35
2023-02-12T16:05:29.171Z,17.80
2023-02-12T16:10:27.375Z,24.92
2023-02-12T16:15:31.041Z,16.95
2023-02-12T16:20:30.911Z,25.52
2023-02-12T16:25:31.985Z,31.25
2023-02-12T16:30:38.920Z,26.15
2023-02-12T16:35:36.377Z,36.60
2023-02-12T16:40:35.910Z,44.45
2023-02-12T16:45:43.258Z,42.03
2023-02-12T16:50:53.390Z,31.50
2023-02-12T16:55:51.344Z,27.25
2023-02-12T17:00:52.155Z,33.95
2023-02-12T17:05:55.596Z,27.45
2023-02-12T17:10:56.096Z,30.50
2023-02-12T17:15:57.501Z,25.08
2023-02-12T17:20:58.161Z,30.40
2023-02-12T17:25:58.895Z,30.55
2023-02-12T17:31:07.297Z,23.15
2023-02-12T17:36:11.339Z,31.25
2023-02-12T17:41:22.685Z,27.83
2023-02-12T17:46:27.752Z,28.38
2023-02-12T17:51:34.195Z,30.17
2023-02-12T17:56:34.112Z,26.60
2023-02-12T18:01:37.258Z,36.40
2023-02-12T18:06:34.693Z,22.98
2023-02-12T18:11:33.171Z,21.02
2023-02-12T18:16:35.118Z,33.75
2023-02-12T18:21:45.377Z,32.20
2023-02-12T18:27:10.952Z,50.35
2023-02-12T18:32:22.142Z,91.13
2023-02-12T18:37:33.113Z,69.30
2023-02-12T18:42:33.511Z,57.60
2023-02-12T18:47:30.893Z,62.38
2023-02-12T18:52:28.492Z,62.97
2023-02-12T18:57:26.530Z,42.25
2023-02-12T19:02:39.230Z,62.72
2023-02-12T19:07:52.405Z,63.70
2023-02-12T19:13:03.152Z,83.28
2023-02-12T19:18:19.140Z,99.80
2023-02-12T19:23:17.727Z,111.32
2023-02-12T19:28:28.126Z,39.90
2023-02-12T19:33:39.434Z,82.40
2023-02-12T19:38:57.842Z,75.60
2023-02-12T19:44:01.208Z,71.18
2023-02-12T19:49:03.153Z,42.60
2023-02-12T19:54:01.947Z,63.95
2023-02-12T19:59:02.460Z,71.28
2023-02-12T20:04:00.381Z,89.60
2023-02-12T20:09:01.952Z,104.45
2023-02-12T20:14:09.587Z,61.45
2023-02-12T20:19:10.685Z,65.25
2023-02-12T20:24:08.365Z,57.88
2023-02-12T20:29:09.729Z,78.72
2023-02-12T20:34:16.954Z,34.92
2023-02-12T20:39:19.284Z,73.57
2023-02-12T20:44:21.477Z,49.65
2023-02-12T20:49:19.778Z,40.03
2023-02-12T20:54:17.050Z,35.97
2023-02-12T20:59:14.615Z,31.92
2023-02-12T21:04:15.490Z,33.88
2023-02-12T21:09:14.168Z,37.33
2023-02-12T21:14:21.852Z,36.20
2023-02-12T21:19:20.437Z,25.45
2023-02-12T21:24:52.409Z,30.67
2023-02-12T21:30:12.696Z,28.52
2023-02-12T21:35:55.077Z,20.80
2023-02-12T21:41:52.630Z,25.80
2023-02-12T21:47:33.758Z,23.67
2023-02-12T21:59:39.313Z,25.55
2023-02-12T22:05:22.332Z,18.65
2023-02-12T22:10:56.319Z,27.40
2023-02-12T22:16:34.781Z,25.08
2023-02-12T22:22:38.225Z,30.40
2023-02-12T22:28:21.212Z,29.63
2023-02-12T22:34:03.795Z,36.55
2023-02-12T22:39:52.698Z,27.48
2023-02-12T22:45:48.355Z,32.40
2023-02-12T22:51:30.406Z,31.30
2023-02-12T22:57:20.478Z,25.70
2023-02-12T23:03:06.560Z,27.02
2023-02-12T23:08:28.117Z,37.10
2023-02-12T23:13:55.310Z,30.35
2023-02-12T23:19:01.292Z,39.47
2023-02-12T23:24:02.077Z,31.13
2023-02-12T23:29:05.744Z,27.70
2023-02-12T23:34:09.053Z,32.33
2023-02-12T23:39:10.815Z,22.58
2023-02-12T23:44:20.419Z,27.98
2023-02-12T23:49:29.502Z,35.00
2023-02-12T23:54:27.211Z,34.28
2023-02-12T23:59:39.735Z,30.65
